sensor_id;sensor_type;location;lat;lon;timestamp;P1;durP1;ratioP1;P2;durP2;ratioP2
62951;SDS011;52163;52.212;-1.002;2022-09-09T00:02:08;16.20;;;4.60;;
62951;SDS011;52163;52.212;-1.002;2022-09-09T00:04:43;13.50;;;4.60;;
62951;SDS011;52163;52.212;-1.002;2022-09-09T00:10:29;15.00;;;5.10;;
62951;SDS011;52163;52.212;-1.002;2022-09-09T00:15:26;10.30;;;4.90;;
62951;SDS011;52163;52.212;-1.002;2022-09-09T00:18:23;17.90;;;5.30;;
62951;SDS011;52163;52.212;-1.002;2022-09-09T00:23:23;13.20;;;4.70;;
62951;SDS011;52163;52.212;-1.002;2022-09-09T00:28:31;17.40;;;4.50;;
62951;SDS011;52163;52.212;-1.002;2022-09-09T00:31:08;13.90;;;5.30;;
62951;SDS011;52163;52.212;-1.002;2022-09-09T00:33:38;17.80;;;5.20;;
62951;SDS011;52163;52.212;-1.002;2022-09-09T00:36:09;13.30;;;4.60;;
62951;SDS011;52163;52.212;-1.002;2022-09-09T00:38:42;10.90;;;4.50;;
62951;SDS011;52163;52.212;-1.002;2022-09-09T00:41:21;13.20;;;4.90;;
62951;SDS011;52163;52.212;-1.002;2022-09-09T00:46:48;14.80;;;5.40;;
62951;SDS011;52163;52.212;-1.002;2022-09-09T00:51:56;13.70;;;4.70;;
62951;SDS011;52163;52.212;-1.002;2022-09-09T00:59:56;20.40;;;5.50;;
62951;SDS011;52163;52.212;-1.002;2022-09-09T01:05:06;15.90;;;5.30;;
62951;SDS011;52163;52.212;-1.002;2022-09-09T01:07:42;13.40;;;5.40;;
62951;SDS011;52163;52.212;-1.002;2022-09-09T01:10:17;15.30;;;5.60;;
62951;SDS011;52163;52.212;-1.002;2022-09-09T01:13:04;16.00;;;5.80;;
62951;SDS011;52163;52.212;-1.002;2022-09-09T01:15:40;17.40;;;5.80;;
62951;SDS011;52163;52.212;-1.002;2022-09-09T01:18:10;21.50;;;6.20;;
62951;SDS011;52163;52.212;-1.002;2022-09-09T01:20:44;14.60;;;5.50;;
62951;SDS011;52163;52.212;-1.002;2022-09-09T01:26:33;16.50;;;6.00;;
62951;SDS011;52163;52.212;-1.002;2022-09-09T01:29:02;14.70;;;5.70;;
62951;SDS011;52163;52.212;-1.002;2022-09-09T01:31:41;17.10;;;6.10;;
62951;SDS011;52163;52.212;-1.002;2022-09-09T01:34:18;17.10;;;5.90;;
62951;SDS011;52163;52.212;-1.002;2022-09-09T01:36:46;15.10;;;6.00;;
62951;SDS011;52163;52.212;-1.002;2022-09-09T01:39:18;16.90;;;5.90;;
62951;SDS011;52163;52.212;-1.002;2022-09-09T01:41:44;13.60;;;5.20;;
62951;SDS011;52163;52.212;-1.002;2022-09-09T01:44:10;11.60;;;5.30;;
62951;SDS011;52163;52.212;-1.002;2022-09-09T01:46:36;17.60;;;5.60;;
62951;SDS011;52163;52.212;-1.002;2022-09-09T01:49:02;22.10;;;6.40;;
62951;SDS011;52163;52.212;-1.002;2022-09-09T01:51:30;17.40;;;6.50;;
62951;SDS011;52163;52.212;-1.002;2022-09-09T01:53:55;17.50;;;6.30;;
62951;SDS011;52163;52.212;-1.002;2022-09-09T01:56:25;17.40;;;6.10;;
62951;SDS011;52163;52.212;-1.002;2022-09-09T02:02:09;18.80;;;7.30;;
62951;SDS011;52163;52.212;-1.002;2022-09-09T02:07:16;22.50;;;7.30;;
62951;SDS011;52163;52.212;-1.002;2022-09-09T02:09:49;26.30;;;6.90;;
62951;SDS011;52163;52.212;-1.002;2022-09-09T02:12:23;23.80;;;7.50;;
62951;SDS011;52163;52.212;-1.002;2022-09-09T02:14:51;21.50;;;7.90;;
62951;SDS011;52163;52.212;-1.002;2022-09-09T02:17:31;17.20;;;6.50;;
62951;SDS011;52163;52.212;-1.002;2022-09-09T02:20:08;21.40;;;7.80;;
62951;SDS011;52163;52.212;-1.002;2022-09-09T02:22:37;19.60;;;7.40;;
62951;SDS011;52163;52.212;-1.002;2022-09-09T02:25:07;21.00;;;7.90;;
62951;SDS011;52163;52.212;-1.002;2022-09-09T02:27:35;21.40;;;8.80;;
62951;SDS011;52163;52.212;-1.002;2022-09-09T02:30:02;21.00;;;8.60;;
62951;SDS011;52163;52.212;-1.002;2022-09-09T02:32:29;23.60;;;8.40;;
62951;SDS011;52163;52.212;-1.002;2022-09-09T02:35:00;25.00;;;8.50;;
62951;SDS011;52163;52.212;-1.002;2022-09-09T02:37:38;20.60;;;7.20;;
62951;SDS011;52163;52.212;-1.002;2022-09-09T02:40:06;22.70;;;7.90;;
62951;SDS011;52163;52.212;-1.002;2022-09-09T02:42:40;21.90;;;8.30;;
62951;SDS011;52163;52.212;-1.002;2022-09-09T02:45:11;23.90;;;8.70;;
62951;SDS011;52163;52.212;-1.002;2022-09-09T02:50:35;32.00;;;10.20;;
62951;SDS011;52163;52.212;-1.002;2022-09-09T02:53:16;27.10;;;10.40;;
62951;SDS011;52163;52.212;-1.002;2022-09-09T02:55:48;27.80;;;10.60;;
62951;SDS011;52163;52.212;-1.002;2022-09-09T02:58:29;29.10;;;11.10;;
62951;SDS011;52163;52.212;-1.002;2022-09-09T03:00:55;29.80;;;11.10;;
62951;SDS011;52163;52.212;-1.002;2022-09-09T03:03:22;27.00;;;10.10;;
62951;SDS011;52163;52.212;-1.002;2022-09-09T03:05:49;26.00;;;9.90;;
62951;SDS011;52163;52.212;-1.002;2022-09-09T03:08:15;28.20;;;9.20;;
62951;SDS011;52163;52.212;-1.002;2022-09-09T03:10:42;24.80;;;9.50;;
62951;SDS011;52163;52.212;-1.002;2022-09-09T03:13:07;24.30;;;8.70;;
62951;SDS011;52163;52.212;-1.002;2022-09-09T03:15:33;27.60;;;10.40;;
62951;SDS011;52163;52.212;-1.002;2022-09-09T03:17:59;25.80;;;9.40;;
62951;SDS011;52163;52.212;-1.002;2022-09-09T03:20:26;23.30;;;8.60;;
62951;SDS011;52163;52.212;-1.002;2022-09-09T03:22:53;24.90;;;8.80;;
62951;SDS011;52163;52.212;-1.002;2022-09-09T03:25:20;19.70;;;7.80;;
62951;SDS011;52163;52.212;-1.002;2022-09-09T03:27:46;20.60;;;8.20;;
62951;SDS011;52163;52.212;-1.002;2022-09-09T03:30:11;26.70;;;9.60;;
62951;SDS011;52163;52.212;-1.002;2022-09-09T03:32:37;24.60;;;9.20;;
62951;SDS011;52163;52.212;-1.002;2022-09-09T03:35:03;22.60;;;8.10;;
62951;SDS011;52163;52.212;-1.002;2022-09-09T03:37:29;27.10;;;9.30;;
62951;SDS011;52163;52.212;-1.002;2022-09-09T03:39:55;29.10;;;9.90;;
62951;SDS011;52163;52.212;-1.002;2022-09-09T03:42:20;24.10;;;8.50;;
62951;SDS011;52163;52.212;-1.002;2022-09-09T03:44:46;29.20;;;10.20;;
62951;SDS011;52163;52.212;-1.002;2022-09-09T03:47:18;24.80;;;9.10;;
62951;SDS011;52163;52.212;-1.002;2022-09-09T03:49:45;24.20;;;8.50;;
62951;SDS011;52163;52.212;-1.002;2022-09-09T03:52:11;25.30;;;9.70;;
62951;SDS011;52163;52.212;-1.002;2022-09-09T03:54:37;19.20;;;9.00;;
62951;SDS011;52163;52.212;-1.002;2022-09-09T03:57:03;28.30;;;10.10;;
62951;SDS011;52163;52.212;-1.002;2022-09-09T03:59:29;34.90;;;9.40;;
62951;SDS011;52163;52.212;-1.002;2022-09-09T04:01:56;25.70;;;10.40;;
62951;SDS011;52163;52.212;-1.002;2022-09-09T04:04:24;27.40;;;10.30;;
62951;SDS011;52163;52.212;-1.002;2022-09-09T04:06:51;33.40;;;11.10;;
62951;SDS011;52163;52.212;-1.002;2022-09-09T04:09:16;28.00;;;11.00;;
62951;SDS011;52163;52.212;-1.002;2022-09-09T04:11:42;35.20;;;11.50;;
62951;SDS011;52163;52.212;-1.002;2022-09-09T04:14:07;25.90;;;10.90;;
62951;SDS011;52163;52.212;-1.002;2022-09-09T04:16:34;28.40;;;11.10;;
62951;SDS011;52163;52.212;-1.002;2022-09-09T04:19:02;31.20;;;10.90;;
62951;SDS011;52163;52.212;-1.002;2022-09-09T04:21:29;28.40;;;10.40;;
62951;SDS011;52163;52.212;-1.002;2022-09-09T04:23:55;36.50;;;11.10;;
62951;SDS011;52163;52.212;-1.002;2022-09-09T04:26:21;35.60;;;11.70;;
62951;SDS011;52163;52.212;-1.002;2022-09-09T04:28:47;34.30;;;10.60;;
62951;SDS011;52163;52.212;-1.002;2022-09-09T04:31:17;29.70;;;10.20;;
62951;SDS011;52163;52.212;-1.002;2022-09-09T04:33:48;37.30;;;13.40;;
62951;SDS011;52163;52.212;-1.002;2022-09-09T04:36:14;38.00;;;14.40;;
62951;SDS011;52163;52.212;-1.002;2022-09-09T04:38:40;39.80;;;14.90;;
62951;SDS011;52163;52.212;-1.002;2022-09-09T04:41:06;34.60;;;15.10;;
62951;SDS011;52163;52.212;-1.002;2022-09-09T04:43:33;39.30;;;14.10;;
62951;SDS011;52163;52.212;-1.002;2022-09-09T04:45:59;42.10;;;14.70;;
62951;SDS011;52163;52.212;-1.002;2022-09-09T04:48:25;42.00;;;14.40;;
62951;SDS011;52163;52.212;-1.002;2022-09-09T04:50:57;36.70;;;13.70;;
62951;SDS011;52163;52.212;-1.002;2022-09-09T04:53:24;41.20;;;14.60;;
62951;SDS011;52163;52.212;-1.002;2022-09-09T04:55:50;37.80;;;13.40;;
62951;SDS011;52163;52.212;-1.002;2022-09-09T04:58:36;36.90;;;15.40;;
62951;SDS011;52163;52.212;-1.002;2022-09-09T05:01:07;41.60;;;16.00;;
62951;SDS011;52163;52.212;-1.002;2022-09-09T05:03:36;42.90;;;17.20;;
62951;SDS011;52163;52.212;-1.002;2022-09-09T05:06:09;46.30;;;16.20;;
62951;SDS011;52163;52.212;-1.002;2022-09-09T05:08:36;43.50;;;15.10;;
62951;SDS011;52163;52.212;-1.002;2022-09-09T05:11:25;48.60;;;16.20;;
62951;SDS011;52163;52.212;-1.002;2022-09-09T05:13:53;51.60;;;15.40;;
62951;SDS011;52163;52.212;-1.002;2022-09-09T05:16:19;44.10;;;14.40;;
62951;SDS011;52163;52.212;-1.002;2022-09-09T05:18:45;42.30;;;14.50;;
62951;SDS011;52163;52.212;-1.002;2022-09-09T05:21:12;50.00;;;16.70;;
62951;SDS011;52163;52.212;-1.002;2022-09-09T05:23:39;46.00;;;15.50;;
62951;SDS011;52163;52.212;-1.002;2022-09-09T05:26:05;51.20;;;16.20;;
62951;SDS011;52163;52.212;-1.002;2022-09-09T05:28:33;45.10;;;15.30;;
62951;SDS011;52163;52.212;-1.002;2022-09-09T05:31:01;48.40;;;15.40;;
62951;SDS011;52163;52.212;-1.002;2022-09-09T05:33:33;49.60;;;16.80;;
62951;SDS011;52163;52.212;-1.002;2022-09-09T05:36:04;52.50;;;15.60;;
62951;SDS011;52163;52.212;-1.002;2022-09-09T05:38:32;46.60;;;16.20;;
62951;SDS011;52163;52.212;-1.002;2022-09-09T05:40:59;54.50;;;18.50;;
62951;SDS011;52163;52.212;-1.002;2022-09-09T05:43:25;59.90;;;18.40;;
62951;SDS011;52163;52.212;-1.002;2022-09-09T05:48:48;56.20;;;18.40;;
62951;SDS011;52163;52.212;-1.002;2022-09-09T05:51:22;61.50;;;19.40;;
62951;SDS011;52163;52.212;-1.002;2022-09-09T05:53:55;62.10;;;17.50;;
62951;SDS011;52163;52.212;-1.002;2022-09-09T05:56:24;62.00;;;19.10;;
62951;SDS011;52163;52.212;-1.002;2022-09-09T05:58:51;63.80;;;17.90;;
62951;SDS011;52163;52.212;-1.002;2022-09-09T06:01:22;52.80;;;16.90;;
62951;SDS011;52163;52.212;-1.002;2022-09-09T06:03:51;55.20;;;18.60;;
62951;SDS011;52163;52.212;-1.002;2022-09-09T06:06:20;60.70;;;19.40;;
62951;SDS011;52163;52.212;-1.002;2022-09-09T06:08:55;62.50;;;17.90;;
62951;SDS011;52163;52.212;-1.002;2022-09-09T06:11:26;64.30;;;17.90;;
62951;SDS011;52163;52.212;-1.002;2022-09-09T06:13:57;65.40;;;17.30;;
62951;SDS011;52163;52.212;-1.002;2022-09-09T06:16:23;62.90;;;16.90;;
62951;SDS011;52163;52.212;-1.002;2022-09-09T06:18:50;60.90;;;17.40;;
62951;SDS011;52163;52.212;-1.002;2022-09-09T06:23:41;52.10;;;17.20;;
62951;SDS011;52163;52.212;-1.002;2022-09-09T06:26:29;47.10;;;16.10;;
62951;SDS011;52163;52.212;-1.002;2022-09-09T06:28:55;49.10;;;16.60;;
62951;SDS011;52163;52.212;-1.002;2022-09-09T06:31:23;56.80;;;17.30;;
62951;SDS011;52163;52.212;-1.002;2022-09-09T06:33:51;49.70;;;15.80;;
62951;SDS011;52163;52.212;-1.002;2022-09-09T06:36:24;38.40;;;14.00;;
62951;SDS011;52163;52.212;-1.002;2022-09-09T06:38:54;45.30;;;14.20;;
62951;SDS011;52163;52.212;-1.002;2022-09-09T06:41:21;42.00;;;13.80;;
62951;SDS011;52163;52.212;-1.002;2022-09-09T06:43:48;45.40;;;15.50;;
62951;SDS011;52163;52.212;-1.002;2022-09-09T06:46:18;41.40;;;12.50;;
62951;SDS011;52163;52.212;-1.002;2022-09-09T06:48:47;44.10;;;13.10;;
62951;SDS011;52163;52.212;-1.002;2022-09-09T06:51:17;43.10;;;14.20;;
62951;SDS011;52163;52.212;-1.002;2022-09-09T06:53:46;57.60;;;17.00;;
62951;SDS011;52163;52.212;-1.002;2022-09-09T06:56:18;70.70;;;24.60;;
62951;SDS011;52163;52.212;-1.002;2022-09-09T06:58:49;47.40;;;15.80;;
62951;SDS011;52163;52.212;-1.002;2022-09-09T07:01:17;46.50;;;14.80;;
62951;SDS011;52163;52.212;-1.002;2022-09-09T07:03:49;49.30;;;14.30;;
62951;SDS011;52163;52.212;-1.002;2022-09-09T07:06:23;52.00;;;14.90;;
62951;SDS011;52163;52.212;-1.002;2022-09-09T07:08:56;46.60;;;12.40;;
62951;SDS011;52163;52.212;-1.002;2022-09-09T07:11:27;44.60;;;13.90;;
62951;SDS011;52163;52.212;-1.002;2022-09-09T07:13:54;51.60;;;15.20;;
62951;SDS011;52163;52.212;-1.002;2022-09-09T07:16:22;50.80;;;15.30;;
62951;SDS011;52163;52.212;-1.002;2022-09-09T07:18:51;58.00;;;14.40;;
62951;SDS011;52163;52.212;-1.002;2022-09-09T07:21:18;56.30;;;14.40;;
62951;SDS011;52163;52.212;-1.002;2022-09-09T07:23:44;69.60;;;14.90;;
62951;SDS011;52163;52.212;-1.002;2022-09-09T07:26:10;54.20;;;14.40;;
62951;SDS011;52163;52.212;-1.002;2022-09-09T07:28:37;66.40;;;16.40;;
62951;SDS011;52163;52.212;-1.002;2022-09-09T07:31:03;59.80;;;15.80;;
62951;SDS011;52163;52.212;-1.002;2022-09-09T07:33:30;67.10;;;18.50;;
62951;SDS011;52163;52.212;-1.002;2022-09-09T07:36:06;64.70;;;17.40;;
62951;SDS011;52163;52.212;-1.002;2022-09-09T07:38:38;61.70;;;17.20;;
62951;SDS011;52163;52.212;-1.002;2022-09-09T07:41:10;66.70;;;17.30;;
62951;SDS011;52163;52.212;-1.002;2022-09-09T07:43:39;62.00;;;17.50;;
62951;SDS011;52163;52.212;-1.002;2022-09-09T07:46:05;62.20;;;19.30;;
62951;SDS011;52163;52.212;-1.002;2022-09-09T07:48:32;65.60;;;18.40;;
62951;SDS011;52163;52.212;-1.002;2022-09-09T07:51:08;73.00;;;18.50;;
62951;SDS011;52163;52.212;-1.002;2022-09-09T07:53:37;65.80;;;19.50;;
62951;SDS011;52163;52.212;-1.002;2022-09-09T07:56:07;63.90;;;17.30;;
62951;SDS011;52163;52.212;-1.002;2022-09-09T07:58:35;61.60;;;18.30;;
62951;SDS011;52163;52.212;-1.002;2022-09-09T08:01:09;69.10;;;18.80;;
62951;SDS011;52163;52.212;-1.002;2022-09-09T08:03:43;80.90;;;21.50;;
62951;SDS011;52163;52.212;-1.002;2022-09-09T08:06:10;71.60;;;20.40;;
62951;SDS011;52163;52.212;-1.002;2022-09-09T08:08:37;70.30;;;19.80;;
62951;SDS011;52163;52.212;-1.002;2022-09-09T08:13:36;67.00;;;18.60;;
62951;SDS011;52163;52.212;-1.002;2022-09-09T08:16:06;67.30;;;20.40;;
62951;SDS011;52163;52.212;-1.002;2022-09-09T08:18:32;74.10;;;20.20;;
62951;SDS011;52163;52.212;-1.002;2022-09-09T08:21:04;73.20;;;20.20;;
62951;SDS011;52163;52.212;-1.002;2022-09-09T08:23:36;56.50;;;19.40;;
62951;SDS011;52163;52.212;-1.002;2022-09-09T08:26:07;61.30;;;19.30;;
62951;SDS011;52163;52.212;-1.002;2022-09-09T08:28:38;62.50;;;19.80;;
62951;SDS011;52163;52.212;-1.002;2022-09-09T08:31:09;63.20;;;18.60;;
62951;SDS011;52163;52.212;-1.002;2022-09-09T08:33:37;56.20;;;17.80;;
62951;SDS011;52163;52.212;-1.002;2022-09-09T08:36:03;94.70;;;35.00;;
62951;SDS011;52163;52.212;-1.002;2022-09-09T08:38:31;63.30;;;21.10;;
62951;SDS011;52163;52.212;-1.002;2022-09-09T08:41:03;94.80;;;31.30;;
62951;SDS011;52163;52.212;-1.002;2022-09-09T08:44:10;69.90;;;25.00;;
62951;SDS011;52163;52.212;-1.002;2022-09-09T08:52:02;58.00;;;19.70;;
62951;SDS011;52163;52.212;-1.002;2022-09-09T08:54:35;50.50;;;17.90;;
62951;SDS011;52163;52.212;-1.002;2022-09-09T08:57:02;46.10;;;17.00;;
62951;SDS011;52163;52.212;-1.002;2022-09-09T08:59:36;46.20;;;18.20;;
62951;SDS011;52163;52.212;-1.002;2022-09-09T09:02:21;47.10;;;17.90;;
62951;SDS011;52163;52.212;-1.002;2022-09-09T09:12:36;46.30;;;16.90;;
62951;SDS011;52163;52.212;-1.002;2022-09-09T09:15:11;46.50;;;17.70;;
62951;SDS011;52163;52.212;-1.002;2022-09-09T09:17:43;47.40;;;17.00;;
62951;SDS011;52163;52.212;-1.002;2022-09-09T09:20:13;40.30;;;16.70;;
62951;SDS011;52163;52.212;-1.002;2022-09-09T09:25:13;49.60;;;16.40;;
62951;SDS011;52163;52.212;-1.002;2022-09-09T09:27:58;44.90;;;16.20;;
62951;SDS011;52163;52.212;-1.002;2022-09-09T09:30:28;43.30;;;16.40;;
62951;SDS011;52163;52.212;-1.002;2022-09-09T09:35:33;43.10;;;16.10;;
62951;SDS011;52163;52.212;-1.002;2022-09-09T09:37:59;49.10;;;16.30;;
62951;SDS011;52163;52.212;-1.002;2022-09-09T09:40:26;48.60;;;16.10;;
62951;SDS011;52163;52.212;-1.002;2022-09-09T09:42:55;45.50;;;16.40;;
62951;SDS011;52163;52.212;-1.002;2022-09-09T09:48:00;42.80;;;15.20;;
62951;SDS011;52163;52.212;-1.002;2022-09-09T09:50:28;37.00;;;13.70;;
62951;SDS011;52163;52.212;-1.002;2022-09-09T09:52:55;50.70;;;18.40;;
62951;SDS011;52163;52.212;-1.002;2022-09-09T09:55:28;41.80;;;15.90;;
62951;SDS011;52163;52.212;-1.002;2022-09-09T09:58:00;51.90;;;16.90;;
62951;SDS011;52163;52.212;-1.002;2022-09-09T10:00:27;48.40;;;16.50;;
62951;SDS011;52163;52.212;-1.002;2022-09-09T10:02:52;43.50;;;15.80;;
62951;SDS011;52163;52.212;-1.002;2022-09-09T10:05:22;44.80;;;15.00;;
62951;SDS011;52163;52.212;-1.002;2022-09-09T10:19:18;36.90;;;12.80;;
62951;SDS011;52163;52.212;-1.002;2022-09-09T10:27:33;25.90;;;9.90;;
62951;SDS011;52163;52.212;-1.002;2022-09-09T10:30:17;30.00;;;11.20;;
62951;SDS011;52163;52.212;-1.002;2022-09-09T10:32:56;27.00;;;10.70;;
62951;SDS011;52163;52.212;-1.002;2022-09-09T10:38:30;34.70;;;14.20;;
62951;SDS011;52163;52.212;-1.002;2022-09-09T10:41:00;34.10;;;13.70;;
62951;SDS011;52163;52.212;-1.002;2022-09-09T10:48:43;30.00;;;13.20;;
62951;SDS011;52163;52.212;-1.002;2022-09-09T10:57:33;31.60;;;12.50;;
62951;SDS011;52163;52.212;-1.002;2022-09-09T11:00:04;32.00;;;14.40;;
62951;SDS011;52163;52.212;-1.002;2022-09-09T11:02:52;32.60;;;14.70;;
62951;SDS011;52163;52.212;-1.002;2022-09-09T11:05:24;33.70;;;15.50;;
62951;SDS011;52163;52.212;-1.002;2022-09-09T11:07:59;35.30;;;16.60;;
62951;SDS011;52163;52.212;-1.002;2022-09-09T11:10:40;65.20;;;29.40;;
62951;SDS011;52163;52.212;-1.002;2022-09-09T11:13:22;50.80;;;24.00;;
62951;SDS011;52163;52.212;-1.002;2022-09-09T11:16:02;30.00;;;13.50;;
62951;SDS011;52163;52.212;-1.002;2022-09-09T11:18:38;38.30;;;16.00;;
62951;SDS011;52163;52.212;-1.002;2022-09-09T11:21:08;28.70;;;13.70;;
62951;SDS011;52163;52.212;-1.002;2022-09-09T11:23:43;36.20;;;15.10;;
62951;SDS011;52163;52.212;-1.002;2022-09-09T11:26:17;33.70;;;15.20;;
62951;SDS011;52163;52.212;-1.002;2022-09-09T11:40:22;24.60;;;10.50;;
62951;SDS011;52163;52.212;-1.002;2022-09-09T11:43:00;28.30;;;12.10;;
62951;SDS011;52163;52.212;-1.002;2022-09-09T11:45:29;24.50;;;10.20;;
62951;SDS011;52163;52.212;-1.002;2022-09-09T12:02:18;18.10;;;7.30;;
62951;SDS011;52163;52.212;-1.002;2022-09-09T12:05:02;15.70;;;7.70;;
62951;SDS011;52163;52.212;-1.002;2022-09-09T12:07:35;19.10;;;9.00;;
62951;SDS011;52163;52.212;-1.002;2022-09-09T12:10:05;20.60;;;8.70;;
62951;SDS011;52163;52.212;-1.002;2022-09-09T12:12:47;18.30;;;8.80;;
62951;SDS011;52163;52.212;-1.002;2022-09-09T12:17:42;16.70;;;8.60;;
62951;SDS011;52163;52.212;-1.002;2022-09-09T12:28:20;13.30;;;5.10;;
62951;SDS011;52163;52.212;-1.002;2022-09-09T12:33:17;14.30;;;5.30;;
62951;SDS011;52163;52.212;-1.002;2022-09-09T12:35:44;9.00;;;4.20;;
62951;SDS011;52163;52.212;-1.002;2022-09-09T12:38:19;9.50;;;4.40;;
62951;SDS011;52163;52.212;-1.002;2022-09-09T12:41:15;10.50;;;5.30;;
62951;SDS011;52163;52.212;-1.002;2022-09-09T12:43:48;10.90;;;4.70;;
62951;SDS011;52163;52.212;-1.002;2022-09-09T12:46:21;12.60;;;5.40;;
62951;SDS011;52163;52.212;-1.002;2022-09-09T12:48:52;14.40;;;6.70;;
62951;SDS011;52163;52.212;-1.002;2022-09-09T12:51:28;12.50;;;6.10;;
62951;SDS011;52163;52.212;-1.002;2022-09-09T12:53:56;15.80;;;6.60;;
62951;SDS011;52163;52.212;-1.002;2022-09-09T12:56:25;10.50;;;5.30;;
62951;SDS011;52163;52.212;-1.002;2022-09-09T12:58:54;9.10;;;5.40;;
62951;SDS011;52163;52.212;-1.002;2022-09-09T13:01:31;14.70;;;7.40;;
62951;SDS011;52163;52.212;-1.002;2022-09-09T13:03:58;14.80;;;7.50;;
62951;SDS011;52163;52.212;-1.002;2022-09-09T13:06:25;18.20;;;7.20;;
62951;SDS011;52163;52.212;-1.002;2022-09-09T13:08:53;18.10;;;7.00;;
62951;SDS011;52163;52.212;-1.002;2022-09-09T13:14:00;18.60;;;7.50;;
62951;SDS011;52163;52.212;-1.002;2022-09-09T13:16:27;13.90;;;6.90;;
62951;SDS011;52163;52.212;-1.002;2022-09-09T13:19:02;18.10;;;7.80;;
62951;SDS011;52163;52.212;-1.002;2022-09-09T13:21:34;15.10;;;8.30;;
62951;SDS011;52163;52.212;-1.002;2022-09-09T13:24:03;19.30;;;9.00;;
62951;SDS011;52163;52.212;-1.002;2022-09-09T13:26:32;17.90;;;8.20;;
62951;SDS011;52163;52.212;-1.002;2022-09-09T13:29:15;11.90;;;7.50;;
62951;SDS011;52163;52.212;-1.002;2022-09-09T13:31:45;15.60;;;9.00;;
62951;SDS011;52163;52.212;-1.002;2022-09-09T13:34:12;19.40;;;10.60;;
62951;SDS011;52163;52.212;-1.002;2022-09-09T13:36:39;23.40;;;11.80;;
62951;SDS011;52163;52.212;-1.002;2022-09-09T13:39:13;26.90;;;11.10;;
62951;SDS011;52163;52.212;-1.002;2022-09-09T13:41:42;20.90;;;10.40;;
62951;SDS011;52163;52.212;-1.002;2022-09-09T13:44:20;20.30;;;11.30;;
62951;SDS011;52163;52.212;-1.002;2022-09-09T13:46:59;18.00;;;9.80;;
62951;SDS011;52163;52.212;-1.002;2022-09-09T13:49:30;20.40;;;9.50;;
62951;SDS011;52163;52.212;-1.002;2022-09-09T13:52:11;19.90;;;9.40;;
62951;SDS011;52163;52.212;-1.002;2022-09-09T13:54:42;16.30;;;8.80;;
62951;SDS011;52163;52.212;-1.002;2022-09-09T13:57:14;15.90;;;8.30;;
62951;SDS011;52163;52.212;-1.002;2022-09-09T13:59:43;23.80;;;9.40;;
62951;SDS011;52163;52.212;-1.002;2022-09-09T14:02:12;22.20;;;10.90;;
62951;SDS011;52163;52.212;-1.002;2022-09-09T14:04:38;22.40;;;10.30;;
62951;SDS011;52163;52.212;-1.002;2022-09-09T14:07:07;19.60;;;9.70;;
62951;SDS011;52163;52.212;-1.002;2022-09-09T14:09:38;20.50;;;9.80;;
62951;SDS011;52163;52.212;-1.002;2022-09-09T14:12:04;22.50;;;9.70;;
62951;SDS011;52163;52.212;-1.002;2022-09-09T14:14:30;20.80;;;10.30;;
62951;SDS011;52163;52.212;-1.002;2022-09-09T14:16:55;20.10;;;11.30;;
62951;SDS011;52163;52.212;-1.002;2022-09-09T14:19:21;19.10;;;10.30;;
62951;SDS011;52163;52.212;-1.002;2022-09-09T14:21:46;21.50;;;10.50;;
62951;SDS011;52163;52.212;-1.002;2022-09-09T14:24:11;20.00;;;11.10;;
62951;SDS011;52163;52.212;-1.002;2022-09-09T14:26:37;23.10;;;10.90;;
62951;SDS011;52163;52.212;-1.002;2022-09-09T14:29:03;19.50;;;10.00;;
62951;SDS011;52163;52.212;-1.002;2022-09-09T14:31:28;16.20;;;8.10;;
62951;SDS011;52163;52.212;-1.002;2022-09-09T14:33:53;17.80;;;7.60;;
62951;SDS011;52163;52.212;-1.002;2022-09-09T14:36:19;18.50;;;8.70;;
62951;SDS011;52163;52.212;-1.002;2022-09-09T14:38:45;17.30;;;9.20;;
62951;SDS011;52163;52.212;-1.002;2022-09-09T14:41:15;18.70;;;8.70;;
62951;SDS011;52163;52.212;-1.002;2022-09-09T14:43:42;19.20;;;8.80;;
62951;SDS011;52163;52.212;-1.002;2022-09-09T14:46:09;20.50;;;8.90;;
62951;SDS011;52163;52.212;-1.002;2022-09-09T14:48:41;13.50;;;6.70;;
62951;SDS011;52163;52.212;-1.002;2022-09-09T14:51:19;16.80;;;7.30;;
62951;SDS011;52163;52.212;-1.002;2022-09-09T14:53:47;18.10;;;8.10;;
62951;SDS011;52163;52.212;-1.002;2022-09-09T14:56:16;22.70;;;8.40;;
62951;SDS011;52163;52.212;-1.002;2022-09-09T14:58:43;18.00;;;7.80;;
62951;SDS011;52163;52.212;-1.002;2022-09-09T15:01:17;15.20;;;7.10;;
62951;SDS011;52163;52.212;-1.002;2022-09-09T15:03:48;13.30;;;6.20;;
62951;SDS011;52163;52.212;-1.002;2022-09-09T15:06:16;8.40;;;3.10;;
62951;SDS011;52163;52.212;-1.002;2022-09-09T15:08:42;7.10;;;2.80;;
62951;SDS011;52163;52.212;-1.002;2022-09-09T15:11:09;4.40;;;2.00;;
62951;SDS011;52163;52.212;-1.002;2022-09-09T15:13:36;6.20;;;2.20;;
62951;SDS011;52163;52.212;-1.002;2022-09-09T15:16:04;4.00;;;1.60;;
62951;SDS011;52163;52.212;-1.002;2022-09-09T15:18:30;2.60;;;1.20;;
62951;SDS011;52163;52.212;-1.002;2022-09-09T15:20:58;4.00;;;1.50;;
62951;SDS011;52163;52.212;-1.002;2022-09-09T15:23:26;2.50;;;1.20;;
62951;SDS011;52163;52.212;-1.002;2022-09-09T15:25:52;4.70;;;1.40;;
62951;SDS011;52163;52.212;-1.002;2022-09-09T15:28:20;3.90;;;1.30;;
62951;SDS011;52163;52.212;-1.002;2022-09-09T15:30:49;3.90;;;1.40;;
62951;SDS011;52163;52.212;-1.002;2022-09-09T15:33:17;2.90;;;1.20;;
62951;SDS011;52163;52.212;-1.002;2022-09-09T15:35:42;5.70;;;1.40;;
62951;SDS011;52163;52.212;-1.002;2022-09-09T15:38:08;3.10;;;1.20;;
62951;SDS011;52163;52.212;-1.002;2022-09-09T15:40:33;3.60;;;1.50;;
62951;SDS011;52163;52.212;-1.002;2022-09-09T15:42:59;5.60;;;2.00;;
62951;SDS011;52163;52.212;-1.002;2022-09-09T15:45:24;6.00;;;2.90;;
62951;SDS011;52163;52.212;-1.002;2022-09-09T15:47:49;4.10;;;2.40;;
62951;SDS011;52163;52.212;-1.002;2022-09-09T15:50:15;5.20;;;2.40;;
62951;SDS011;52163;52.212;-1.002;2022-09-09T15:52:40;3.80;;;1.90;;
62951;SDS011;52163;52.212;-1.002;2022-09-09T15:55:06;4.00;;;1.90;;
62951;SDS011;52163;52.212;-1.002;2022-09-09T15:57:33;4.40;;;1.90;;
62951;SDS011;52163;52.212;-1.002;2022-09-09T16:00:04;4.90;;;2.40;;
62951;SDS011;52163;52.212;-1.002;2022-09-09T16:02:30;4.50;;;2.50;;
62951;SDS011;52163;52.212;-1.002;2022-09-09T16:04:56;4.10;;;2.20;;
62951;SDS011;52163;52.212;-1.002;2022-09-09T16:07:22;4.80;;;2.50;;
62951;SDS011;52163;52.212;-1.002;2022-09-09T16:09:48;5.20;;;3.10;;
62951;SDS011;52163;52.212;-1.002;2022-09-09T16:12:16;4.90;;;2.90;;
62951;SDS011;52163;52.212;-1.002;2022-09-09T16:14:42;5.40;;;2.40;;
62951;SDS011;52163;52.212;-1.002;2022-09-09T16:17:07;4.90;;;2.80;;
62951;SDS011;52163;52.212;-1.002;2022-09-09T16:19:33;6.00;;;3.70;;
62951;SDS011;52163;52.212;-1.002;2022-09-09T16:21:59;8.60;;;4.90;;
62951;SDS011;52163;52.212;-1.002;2022-09-09T16:24:25;13.40;;;5.70;;
62951;SDS011;52163;52.212;-1.002;2022-09-09T16:26:51;11.80;;;6.80;;
62951;SDS011;52163;52.212;-1.002;2022-09-09T16:29:19;17.60;;;8.00;;
62951;SDS011;52163;52.212;-1.002;2022-09-09T16:31:46;15.50;;;9.40;;
62951;SDS011;52163;52.212;-1.002;2022-09-09T16:34:13;18.40;;;9.20;;
62951;SDS011;52163;52.212;-1.002;2022-09-09T16:36:40;23.50;;;11.10;;
62951;SDS011;52163;52.212;-1.002;2022-09-09T16:39:08;23.10;;;9.10;;
62951;SDS011;52163;52.212;-1.002;2022-09-09T16:41:36;20.10;;;9.10;;
62951;SDS011;52163;52.212;-1.002;2022-09-09T16:44:03;14.20;;;7.90;;
62951;SDS011;52163;52.212;-1.002;2022-09-09T16:46:31;14.30;;;6.60;;
62951;SDS011;52163;52.212;-1.002;2022-09-09T16:49:00;11.30;;;6.30;;
62951;SDS011;52163;52.212;-1.002;2022-09-09T16:51:28;13.60;;;6.90;;